Time;durP1;ratioP1;P1;durP2;ratioP2;P2;SDS_P1;SDS_P2;PMS_P1;PMS_P2;Temp;Humidity;BMP_temperature;BMP_pressure;BME280_temperature;BME280_humidity;BME280_pressure;Samples;Min_cycle;Max_cycle;Signal;HPM_P1;HPM_P2
2020/12/21 00:03:32;;;;;;;102.47;43.27;;;;;;;-3.23;93.55;100081.77;4332820;81;21624;-84
2020/12/21 00:09:34;;;;;;;97.43;42.20;;;;;;;-3.25;93.57;100081.76;4311019;81;21165;-85
2020/12/21 00:15:35;;;;;;;95.20;41.30;;;;;;;-3.28;93.48;100097.01;4313975;81;21199;-85
2020/12/21 00:21:39;;;;;;;114.70;45.77;;;;;;;-3.31;93.52;100103.70;4304387;81;21160;-85
2020/12/21 00:27:40;;;;;;;112.30;46.80;;;;;;;-3.38;93.34;100109.79;4300729;81;21181;-85
2020/12/21 00:33:42;;;;;;;125.97;51.30;;;;;;;-3.32;93.47;100113.33;4300374;81;21242;-85
2020/12/21 00:39:43;;;;;;;114.33;46.00;;;;;;;-3.29;93.53;100119.50;4304554;81;21193;-84
2020/12/21 00:45:45;;;;;;;115.70;44.97;;;;;;;-3.20;93.47;100131.34;4310955;81;21222;-84
2020/12/21 00:51:46;;;;;;;120.20;46.67;;;;;;;-3.21;93.68;100123.05;4304812;81;21146;-84
2020/12/21 00:57:48;;;;;;;119.10;46.93;;;;;;;-3.11;93.65;100126.29;4375639;78;21782;-84
2020/12/21 01:03:49;;;;;;;125.23;49.70;;;;;;;-3.13;93.32;100123.09;4257951;81;21705;-84
2020/12/21 01:09:51;;;;;;;128.93;50.87;;;;;;;-3.14;93.39;100127.63;4336335;81;21183;-84
2020/12/21 01:15:53;;;;;;;131.37;53.60;;;;;;;-3.08;93.39;100114.53;4322417;81;21184;-85
2020/12/21 01:21:59;;;;;;;123.23;47.77;;;;;;;-2.99;93.67;100116.20;4341154;81;21193;-85
2020/12/21 01:28:01;;;;;;;128.18;49.95;;;;;;;-2.99;93.24;100119.67;4273586;81;21319;-84
2020/12/21 01:34:02;;;;;;;108.67;43.10;;;;;;;-2.98;93.56;100126.66;4311551;81;21134;-84
2020/12/21 01:40:05;;;;;;;97.40;38.63;;;;;;;-2.85;93.65;100129.41;4324508;81;21169;-84
2020/12/21 01:46:16;;;;;;;100.77;40.07;;;;;;;-2.86;93.40;100129.11;4312457;81;21753;-85
2020/12/21 01:52:19;;;;;;;102.03;42.50;;;;;;;-2.94;93.35;100127.73;4309834;81;21319;-84
2020/12/21 01:58:20;;;;;;;98.70;41.07;;;;;;;-2.96;93.46;100114.34;4312185;81;21607;-84
2020/12/21 02:04:22;;;;;;;98.90;40.40;;;;;;;-2.96;93.41;100115.13;4308285;81;22504;-85
2020/12/21 02:10:23;;;;;;;101.60;40.13;;;;;;;-3.00;93.30;100110.55;4252088;82;21167;-84
2020/12/21 02:16:25;;;;;;;85.80;36.03;;;;;;;-2.99;93.29;100110.84;4355953;81;21180;-85
2020/12/21 02:22:26;;;;;;;83.30;35.70;;;;;;;-3.05;93.26;100112.67;4367428;80;21644;-85
2020/12/21 02:28:28;;;;;;;78.40;34.73;;;;;;;-3.12;93.06;100114.79;4359149;79;21673;-85
2020/12/21 02:34:29;;;;;;;90.60;37.10;;;;;;;-3.13;93.21;100118.52;4372488;79;21140;-84
2020/12/21 02:40:31;;;;;;;90.40;34.67;;;;;;;-3.15;93.35;100117.17;4362702;79;21161;-85
2020/12/21 02:46:32;;;;;;;76.83;32.73;;;;;;;-3.24;93.34;100112.30;4360786;79;21160;-84
2020/12/21 02:52:33;;;;;;;88.53;36.03;;;;;;;-3.21;93.21;100121.16;4223479;82;21169;-84
2020/12/21 02:58:35;;;;;;;96.47;37.77;;;;;;;-3.16;93.33;100127.07;4257622;82;21156;-85
2020/12/21 03:04:36;;;;;;;88.43;33.43;;;;;;;-3.15;93.15;100120.67;4364724;79;21173;-85
2020/12/21 03:10:39;;;;;;;88.07;34.67;;;;;;;-3.11;93.25;100122.27;4340771;80;21218;-84
2020/12/21 03:16:40;;;;;;;89.53;35.10;;;;;;;-3.04;93.28;100122.34;4348645;80;21168;-84
2020/12/21 03:22:41;;;;;;;83.37;35.60;;;;;;;-3.20;93.00;100130.00;4190190;83;21175;-84
2020/12/21 03:28:43;;;;;;;82.33;34.40;;;;;;;-3.11;93.36;100134.33;4205924;83;21611;-84
2020/12/21 03:34:45;;;;;;;88.03;35.50;;;;;;;-3.17;93.09;100134.02;4199378;82;21749;-85
2020/12/21 03:40:46;;;;;;;91.87;37.60;;;;;;;-3.30;92.77;100137.95;4265163;82;21178;-85
2020/12/21 03:46:48;;;;;;;88.67;35.10;;;;;;;-3.33;93.00;100118.39;4259545;81;21193;-85
2020/12/21 03:52:49;;;;;;;88.90;34.33;;;;;;;-3.26;93.29;100126.47;4189915;83;21188;-84
2020/12/21 03:58:51;;;;;;;84.10;35.83;;;;;;;-3.33;92.70;100112.51;4195577;82;21217;-84
2020/12/21 04:04:53;;;;;;;73.90;33.70;;;;;;;-3.37;92.92;100098.01;4205585;82;21639;-84
2020/12/21 04:10:54;;;;;;;94.80;37.30;;;;;;;-3.36;92.96;100098.30;4335120;81;21209;-84
2020/12/21 04:16:55;;;;;;;93.20;36.73;;;;;;;-3.37;92.83;100094.55;4346702;80;21588;-84
2020/12/21 04:22:58;;;;;;;111.70;42.13;;;;;;;-3.58;92.82;100098.13;4330513;80;21207;-85
2020/12/21 04:29:01;;;;;;;101.20;41.97;;;;;;;-3.68;92.86;100108.77;4340429;80;21664;-84
2020/12/21 04:35:03;;;;;;;106.43;43.33;;;;;;;-3.68;92.87;100109.55;4351488;80;21137;-84
2020/12/21 04:41:05;;;;;;;100.03;42.60;;;;;;;-3.60;93.07;100109.09;4339581;80;21199;-85
2020/12/21 04:47:07;;;;;;;118.53;46.40;;;;;;;-3.47;93.00;100115.88;4348507;80;21133;-84
2020/12/21 04:53:12;;;;;;;131.33;47.30;;;;;;;-3.40;92.86;100123.17;4336314;80;21283;-84
2020/12/21 04:59:14;;;;;;;129.23;48.37;;;;;;;-3.42;92.73;100127.45;4333348;81;21188;-84
2020/12/21 05:05:38;;;;;;;122.43;46.83;;;;;;;-3.39;93.00;100124.25;4279296;81;21182;-84
2020/12/21 05:11:42;;;;;;;132.43;49.00;;;;;;;-3.31;92.96;100125.12;4259892;82;21182;-84
2020/12/21 05:17:43;;;;;;;125.33;47.73;;;;;;;-3.24;92.89;100115.50;4271647;81;21207;-85
2020/12/21 05:23:55;;;;;;;125.00;48.30;;;;;;;-3.22;92.82;100120.89;4314981;81;21230;-84
2020/12/21 05:29:55;;;;;;;121.27;46.70;;;;;;;-3.16;92.69;100128.96;4333409;81;21160;-84
2020/12/21 05:36:09;;;;;;;120.47;47.20;;;;;;;-3.19;92.67;100132.95;4319638;81;21164;-84
2020/12/21 05:42:13;;;;;;;129.27;47.57;;;;;;;-3.14;92.73;100139.67;4311747;81;21212;-84
2020/12/21 05:48:15;;;;;;;145.17;51.13;;;;;;;-3.04;92.72;100141.09;4314606;81;21163;-84
2020/12/21 05:54:16;;;;;;;121.40;46.77;;;;;;;-2.97;92.81;100142.18;4339151;81;21606;-84
2020/12/21 06:00:18;;;;;;;128.43;50.10;;;;;;;-2.91;92.58;100137.16;4315500;81;21204;-84
2020/12/21 06:06:22;;;;;;;128.97;51.50;;;;;;;-2.94;92.88;100134.99;4321999;81;21175;-84
2020/12/21 06:12:27;;;;;;;147.40;51.73;;;;;;;-2.75;92.99;100124.08;4251398;83;21174;-85
2020/12/21 06:18:29;;;;;;;117.80;45.17;;;;;;;-2.73;92.66;100121.95;4252316;83;21174;-85
2020/12/21 06:24:38;;;;;;;124.60;49.90;;;;;;;-2.68;92.94;100129.50;4246078;83;21227;-85
2020/12/21 06:30:40;;;;;;;128.43;50.43;;;;;;;-2.61;92.92;100143.45;4257341;83;21187;-85
2020/12/21 06:36:46;;;;;;;133.40;51.83;;;;;;;-2.53;92.70;100140.28;4256281;83;21805;-85
2020/12/21 06:42:48;;;;;;;125.58;52.55;;;;;;;-2.56;92.57;100138.65;4265122;83;21187;-84
2020/12/21 06:49:13;;;;;;;125.87;51.13;;;;;;;-2.60;92.42;100147.73;4246449;83;21636;-85
2020/12/21 06:55:15;;;;;;;131.63;57.40;;;;;;;-2.52;92.77;100151.27;4216559;83;21179;-85
2020/12/21 07:01:17;;;;;;;124.13;54.40;;;;;;;-2.45;92.70;100159.89;4211657;82;21200;-84
2020/12/21 07:07:19;;;;;;;113.03;47.13;;;;;;;-2.40;92.59;100154.55;4246761;81;21160;-84
2020/12/21 07:13:21;;;;;;;105.30;45.40;;;;;;;-2.35;92.68;100151.08;4275167;83;21185;-85
2020/12/21 07:19:23;;;;;;;122.50;49.83;;;;;;;-2.27;92.89;100146.00;4330935;81;21486;-85
2020/12/21 07:32:37;;;;;;;118.13;50.33;;;;;;;-2.22;92.80;100157.27;4307980;79;21173;-85
2020/12/21 07:38:39;;;;;;;113.17;49.37;;;;;;;-2.18;92.53;100163.75;4443830;79;21161;-84
2020/12/21 07:44:49;;;;;;;124.97;52.40;;;;;;;-2.21;92.48;100163.72;4450106;78;21117;-84
2020/12/21 07:50:50;;;;;;;134.40;56.53;;;;;;;-2.11;92.80;100163.77;4458419;78;21158;-85
2020/12/21 07:57:02;;;;;;;135.00;56.97;;;;;;;-2.04;92.69;100162.17;4381951;80;21193;-84
2020/12/21 08:03:05;;;;;;;133.83;58.40;;;;;;;-2.00;92.66;100163.25;4381616;80;21175;-86
2020/12/21 08:09:07;;;;;;;128.17;55.60;;;;;;;-1.97;92.66;100160.84;4292151;81;21218;-84
2020/12/21 08:15:09;;;;;;;128.90;55.77;;;;;;;-1.93;92.76;100157.11;4337477;80;21197;-84
2020/12/21 08:21:14;;;;;;;121.97;53.60;;;;;;;-1.86;92.83;100156.30;4346228;81;21151;-84
2020/12/21 08:27:19;;;;;;;128.20;53.70;;;;;;;-1.79;92.75;100159.55;4282186;81;21588;-85
2020/12/21 08:33:21;;;;;;;123.53;53.47;;;;;;;-1.73;92.84;100162.50;4287233;81;21180;-84
2020/12/21 08:39:24;;;;;;;144.77;58.53;;;;;;;-1.67;92.93;100160.91;4316807;81;21343;-85
2020/12/21 08:45:26;;;;;;;120.60;53.77;;;;;;;-1.58;92.88;100160.38;4326862;80;21211;-84
2020/12/21 08:51:27;;;;;;;131.30;58.30;;;;;;;-1.45;93.02;100155.27;4288815;81;21153;-85
2020/12/21 08:57:28;;;;;;;133.23;57.47;;;;;;;-1.34;93.09;100160.91;4332801;81;21113;-84
2020/12/21 09:03:30;;;;;;;138.90;59.10;;;;;;;-1.24;93.03;100156.08;4335120;80;21664;-85
2020/12/21 09:09:31;;;;;;;127.80;57.70;;;;;;;-1.13;93.04;100146.94;4306816;81;21177;-85
2020/12/21 09:15:33;;;;;;;128.30;55.40;;;;;;;-1.03;93.04;100142.88;4308522;81;21377;-85
2020/12/21 09:21:34;;;;;;;132.33;57.30;;;;;;;-0.99;92.90;100144.77;4319339;81;21319;-85
2020/12/21 09:55:19;;;;;;;145.70;63.93;;;;;;;-0.91;93.70;100114.63;4515421;76;22267;-85
2020/12/21 10:01:28;;;;;;;132.40;57.93;;;;;;;-0.87;93.72;100117.58;4409173;79;21143;-85
2020/12/21 10:07:30;;;;;;;133.43;61.40;;;;;;;-0.71;93.60;100109.21;4410439;79;21337;-86
2020/12/21 10:13:32;;;;;;;125.40;54.73;;;;;;;-0.46;93.62;100102.91;4408148;79;21202;-86
2020/12/21 10:19:34;;;;;;;112.60;53.30;;;;;;;-0.21;93.34;100096.06;4410474;79;21768;-85
2020/12/21 10:25:36;;;;;;;122.87;60.10;;;;;;;-0.02;93.44;100101.84;4414433;79;21184;-85
2020/12/21 10:31:38;;;;;;;106.25;51.55;;;;;;;0.56;93.87;100098.74;4412727;79;21160;-86
2020/12/21 10:37:40;;;;;;;106.35;52.38;;;;;;;1.59;92.67;100084.95;4417188;79;21164;-86
2020/12/21 10:43:42;;;;;;;115.88;54.30;;;;;;;1.59;92.67;100084.95;4413577;79;21180;-85
2020/12/21 10:49:43;;;;;;;101.92;53.83;;;;;;;1.98;92.72;100076.56;4403398;79;21203;-85
2020/12/21 10:55:45;;;;;;;109.15;53.50;;;;;;;2.22;92.45;100070.54;4419314;79;21601;-85
2020/12/21 11:01:47;;;;;;;113.20;57.55;;;;;;;2.49;92.32;100076.59;4419973;79;21676;-86
2020/12/21 11:07:49;;;;;;;96.85;49.33;;;;;;;2.53;91.89;100076.23;4415368;79;21290;-86
2020/12/21 11:13:51;;;;;;;112.17;54.15;;;;;;;2.37;91.78;100062.17;4413341;79;22696;-86
2020/12/21 11:19:52;;;;;;;106.30;55.58;;;;;;;2.40;91.86;100055.37;4412185;79;21582;-87
2020/12/21 11:25:54;;;;;;;113.92;57.03;;;;;;;2.56;92.19;100053.48;4417617;79;21188;-86
2020/12/21 11:31:55;;;;;;;111.80;57.08;;;;;;;2.51;92.00;100045.99;4419690;78;21140;-86
2020/12/21 11:37:57;;;;;;;114.30;56.90;;;;;;;2.50;92.00;100043.05;4419600;79;21295;-86
2020/12/21 11:43:58;;;;;;;117.30;57.90;;;;;;;2.49;91.63;100036.83;4408430;79;21164;-86
2020/12/21 11:50:00;;;;;;;114.12;57.00;;;;;;;2.51;91.86;100025.18;4417406;79;22285;-85
2020/12/21 11:56:01;;;;;;;112.42;55.83;;;;;;;2.58;92.12;100028.85;4405839;79;21649;-85
2020/12/21 12:02:03;;;;;;;108.47;56.80;;;;;;;2.56;92.15;100027.80;4410825;79;21144;-85
2020/12/21 12:08:05;;;;;;;103.55;53.40;;;;;;;2.63;92.18;100033.61;4412080;79;21135;-86
2020/12/21 12:14:06;;;;;;;110.28;56.73;;;;;;;2.76;92.06;100034.19;4408996;79;21185;-86
2020/12/21 12:20:09;;;;;;;117.60;56.80;;;;;;;2.77;92.10;100031.72;4411110;79;21194;-86
2020/12/21 12:26:19;;;;;;;128.05;58.02;;;;;;;2.68;92.07;100020.55;4416308;79;21156;-85
2020/12/21 12:32:20;;;;;;;122.13;57.90;;;;;;;2.58;92.16;100019.39;4408779;79;21622;-86
2020/12/21 12:38:22;;;;;;;130.10;63.63;;;;;;;2.52;92.34;100028.13;4406273;79;21192;-86
2020/12/21 12:44:23;;;;;;;132.12;65.90;;;;;;;2.46;92.34;100027.19;4406093;79;21282;-86
2020/12/21 12:50:25;;;;;;;136.07;65.17;;;;;;;2.42;92.51;100025.62;4412861;79;21749;-85
2020/12/21 12:56:27;;;;;;;121.40;60.65;;;;;;;2.52;92.93;100029.48;4416038;79;21145;-85
2020/12/21 13:02:29;;;;;;;139.43;71.87;;;;;;;2.68;92.97;100030.81;4409757;79;22125;-86
2020/12/21 13:08:30;;;;;;;131.80;65.65;;;;;;;2.77;92.65;100036.35;4374148;78;31259;-86
2020/12/21 13:14:35;;;;;;;154.23;65.72;;;;;;;2.76;92.56;100039.59;4337326;81;21165;-87
2020/12/21 13:20:36;;;;;;;110.00;55.95;;;;;;;2.69;92.39;100035.69;4337277;81;21153;-86
2020/12/21 13:26:38;;;;;;;114.35;54.73;;;;;;;2.59;92.19;100042.08;4336515;81;21668;-86
2020/12/21 13:32:41;;;;;;;119.87;52.67;;;;;;;2.49;92.15;100036.05;4336160;81;21184;-86
2020/12/21 13:38:43;;;;;;;110.17;52.50;;;;;;;2.46;92.59;100033.37;4336084;81;21159;-86
2020/12/21 13:44:44;;;;;;;125.45;60.15;;;;;;;2.45;92.30;100038.53;4336574;81;21606;-85
2020/12/21 13:50:46;;;;;;;124.38;60.70;;;;;;;2.45;92.45;100033.67;4334846;81;21284;-86
2020/12/21 13:56:47;;;;;;;120.02;60.08;;;;;;;2.42;92.14;100041.02;4316773;81;21231;-86
2020/12/21 14:02:49;;;;;;;121.55;53.60;;;;;;;2.23;91.94;100043.77;4318179;81;21204;-86
2020/12/21 14:08:50;;;;;;;122.17;58.55;;;;;;;1.99;91.90;100039.00;4318704;81;21294;-85
2020/12/21 14:14:52;;;;;;;138.90;63.78;;;;;;;1.89;92.16;100041.88;4317801;81;21147;-86
2020/12/21 14:20:53;;;;;;;119.17;57.85;;;;;;;1.89;92.12;100047.27;4318220;81;21631;-86
2020/12/21 14:26:55;;;;;;;126.70;58.45;;;;;;;1.66;92.19;100042.73;4318316;81;21173;-87
2020/12/21 14:32:57;;;;;;;156.45;73.80;;;;;;;1.60;92.30;100037.14;4317168;81;21168;-86
2020/12/21 14:38:59;;;;;;;160.03;74.45;;;;;;;1.46;91.93;100034.38;4317775;81;21182;-86
2020/12/21 14:45:00;;;;;;;143.00;68.78;;;;;;;1.32;91.95;100025.92;4373114;80;21205;-86
2020/12/21 14:51:02;;;;;;;144.57;66.30;;;;;;;1.14;92.15;100028.83;4377771;80;21172;-87
2020/12/21 14:57:03;;;;;;;126.27;60.28;;;;;;;1.02;91.74;100031.14;4362110;80;21194;-85
2020/12/21 15:03:05;;;;;;;142.07;69.40;;;;;;;0.81;91.78;100033.83;4358924;80;21156;-85
2020/12/21 15:09:09;;;;;;;175.30;77.62;;;;;;;0.70;91.93;100032.32;4358841;80;22006;-86
2020/12/21 15:15:11;;;;;;;152.53;71.77;;;;;;;0.64;92.15;100030.77;4360792;80;21164;-86
2020/12/21 15:21:12;;;;;;;133.25;62.23;;;;;;;0.63;91.83;100033.72;4360290;80;21211;-86
2020/12/21 15:27:14;;;;;;;154.53;70.80;;;;;;;0.49;91.65;100040.33;4361302;80;21570;-86
2020/12/21 15:33:16;;;;;;;160.30;73.90;;;;;;;0.34;91.67;100030.23;4357236;80;21191;-87
2020/12/21 15:39:18;;;;;;;177.70;81.60;;;;;;;0.24;91.57;100014.97;4338833;80;21637;-85
2020/12/21 15:45:23;;;;;;;187.30;84.97;;;;;;;0.14;91.87;100008.88;4359549;80;21172;-84
2020/12/21 15:51:25;;;;;;;156.67;71.67;;;;;;;0.00;91.93;99998.74;4359769;80;21131;-85
2020/12/21 15:57:28;;;;;;;170.55;78.75;;;;;;;-0.07;91.76;100008.23;4360219;80;21168;-85
2020/12/21 16:03:29;;;;;;;196.22;90.07;;;;;;;-0.12;91.92;100005.03;4359798;80;21581;-85
2020/12/21 16:09:30;;;;;;;183.42;88.67;;;;;;;-0.25;91.81;100008.34;4359983;80;21172;-85
2020/12/21 16:15:32;;;;;;;181.05;88.62;;;;;;;-0.23;92.13;100013.45;4359498;80;22150;-85
2020/12/21 16:21:35;;;;;;;206.70;95.70;;;;;;;-0.29;92.00;100005.16;4360438;80;21505;-85
2020/12/21 16:27:36;;;;;;;180.48;85.62;;;;;;;-0.43;92.25;99998.80;4358940;80;21172;-85
2020/12/21 16:33:38;;;;;;;178.70;83.67;;;;;;;-0.39;91.91;100020.81;4356262;80;21241;-84
2020/12/21 16:39:39;;;;;;;154.10;72.75;;;;;;;-0.58;92.40;99990.27;4361829;80;21511;-84
2020/12/21 16:45:41;;;;;;;180.25;90.03;;;;;;;-0.41;92.42;100000.67;4359149;80;21219;-85
2020/12/21 16:51:48;;;;;;;171.98;86.30;;;;;;;-0.41;92.42;100000.67;4359189;79;21645;-85
2020/12/21 16:57:50;;;;;;;161.43;79.55;;;;;;;-0.33;92.30;100000.87;4357044;80;21756;-85
2020/12/21 17:03:51;;;;;;;163.40;84.30;;;;;;;-0.36;92.33;99990.67;4359167;80;21152;-85
2020/12/21 17:09:52;;;;;;;177.12;89.32;;;;;;;-0.36;92.33;99990.67;4359619;80;21154;-85
2020/12/21 17:15:54;;;;;;;148.97;76.90;;;;;;;-0.21;92.81;99995.96;4356095;80;21132;-85
2020/12/21 17:21:55;;;;;;;156.13;80.60;;;;;;;-0.09;92.37;99998.28;4358615;80;21168;-85
2020/12/21 17:27:57;;;;;;;154.10;77.32;;;;;;;-0.21;92.26;99999.19;4358963;80;21156;-85
2020/12/21 17:33:59;;;;;;;180.23;86.83;;;;;;;-0.15;92.66;100009.64;4359139;80;21157;-84
2020/12/21 17:40:00;;;;;;;215.68;96.57;;;;;;;-0.08;92.67;100014.14;4356515;80;21633;-85
2020/12/21 17:46:02;;;;;;;196.67;94.30;;;;;;;0.07;92.89;100009.19;4361495;80;21199;-85
2020/12/21 17:52:03;;;;;;;218.00;101.90;;;;;;;0.04;92.33;100003.03;4359015;79;21207;-84
2020/12/21 17:58:05;;;;;;;221.00;99.30;;;;;;;-0.04;92.49;100011.17;4356961;80;21184;-85
2020/12/21 18:04:36;;;;;;;;;;;;;;;;;;;;;
2020/12/21 18:10:52;;;;;;;251.05;124.35;;;;;;;-0.06;92.39;100001.75;4336584;80;21179;-84
2020/12/21 18:16:54;;;;;;;254.18;123.00;;;;;;;-0.09;92.71;99990.20;4356170;80;21200;-85
2020/12/21 18:22:55;;;;;;;270.25;130.30;;;;;;;-0.12;92.75;99981.34;4352918;80;21561;-86
2020/12/21 18:28:57;;;;;;;312.63;145.30;;;;;;;-0.13;92.74;99985.13;4361046;80;21195;-85
2020/12/21 18:34:59;;;;;;;292.70;138.50;;;;;;;-0.16;92.76;99973.02;4357059;80;21188;-85
2020/12/21 18:41:03;;;;;;;241.27;121.07;;;;;;;-0.20;92.65;99964.45;4355803;80;21204;-85
2020/12/21 18:47:20;;;;;;;233.00;114.67;;;;;;;-0.17;92.91;99962.55;4583725;75;22960;-85
2020/12/21 18:53:20;;;;;;;232.03;116.12;;;;;;;-0.13;93.01;99967.64;4481154;78;21120;-85
2020/12/21 18:59:22;;;;;;;236.87;117.37;;;;;;;-0.06;92.96;99972.95;4482678;78;21139;-85
2020/12/21 19:05:24;;;;;;;242.70;116.65;;;;;;;-0.02;92.86;99969.16;4490663;78;21622;-84
2020/12/21 19:11:25;;;;;;;218.35;108.60;;;;;;;0.03;92.60;99962.93;4482578;78;21215;-85
2020/12/21 19:17:27;;;;;;;215.35;109.17;;;;;;;-0.02;92.85;99961.09;4484386;78;21284;-84
2020/12/21 19:23:29;;;;;;;220.50;110.20;;;;;;;0.14;93.22;99957.72;4475916;78;21149;-85
2020/12/21 19:29:31;;;;;;;223.50;109.27;;;;;;;0.17;92.69;99950.41;4490443;78;21530;-85
2020/12/21 19:35:33;;;;;;;252.83;124.53;;;;;;;-0.04;92.54;99937.15;4478408;78;21204;-85
2020/12/21 19:41:34;;;;;;;262.93;120.85;;;;;;;-0.03;92.69;99927.98;4482273;77;21160;-85
2020/12/21 19:47:36;;;;;;;276.30;125.87;;;;;;;0.01;92.90;99928.22;4489314;78;21168;-84
2020/12/21 19:53:39;;;;;;;231.50;101.40;;;;;;;-0.01;92.94;99929.85;4477968;78;21164;-85
2020/12/21 19:59:41;;;;;;;225.40;103.00;;;;;;;-0.08;92.73;99932.05;4485551;78;21165;-85
2020/12/21 20:05:42;;;;;;;234.83;108.57;;;;;;;-0.13;92.73;99934.00;4487254;78;21488;-85
2020/12/21 20:11:49;;;;;;;241.55;113.45;;;;;;;-0.21;92.74;99926.53;4482564;78;21701;-85
2020/12/21 20:17:51;;;;;;;237.55;106.72;;;;;;;-0.24;92.80;99926.56;4482483;78;21176;-85
2020/12/21 20:23:53;;;;;;;238.77;106.00;;;;;;;-0.15;93.22;99924.86;4487001;78;21200;-85
2020/12/21 20:29:55;;;;;;;216.57;99.95;;;;;;;-0.14;93.15;99917.57;4491398;78;21795;-85
2020/12/21 20:35:56;;;;;;;211.43;99.90;;;;;;;-0.08;92.98;99907.05;4481148;78;21194;-85
2020/12/21 20:41:58;;;;;;;210.93;98.97;;;;;;;-0.08;92.85;99901.09;4483674;77;21176;-86
2020/12/21 20:47:59;;;;;;;212.33;95.37;;;;;;;-0.18;92.59;99895.02;4484495;78;21101;-86
2020/12/21 20:54:01;;;;;;;207.12;100.45;;;;;;;-0.26;92.54;99905.03;4486200;78;21185;-86
2020/12/21 21:00:07;;;;;;;227.20;104.17;;;;;;;-0.32;92.76;99904.29;4478819;78;21183;-85
2020/12/21 21:06:14;;;;;;;207.50;100.60;;;;;;;-0.27;92.79;99905.57;4479086;78;21684;-85
2020/12/21 21:12:15;;;;;;;241.78;110.00;;;;;;;-0.30;92.65;99908.05;4483142;78;21157;-87
2020/12/21 21:18:17;;;;;;;223.50;105.30;;;;;;;-0.35;92.75;99898.66;4486273;78;21104;-86
2020/12/21 21:24:18;;;;;;;237.30;110.77;;;;;;;-0.30;92.98;99899.97;4484524;78;21176;-85
2020/12/21 21:30:20;;;;;;;234.90;110.12;;;;;;;-0.33;92.83;99898.62;4480778;78;21128;-85
2020/12/21 21:36:21;;;;;;;221.35;105.78;;;;;;;-0.35;92.98;99878.48;4487541;78;21180;-85
2020/12/21 21:42:23;;;;;;;239.50;114.15;;;;;;;-0.39;92.76;99872.05;4490261;78;21128;-86
2020/12/21 21:48:24;;;;;;;228.87;113.47;;;;;;;-0.48;93.02;99866.48;4479906;78;21153;-85
2020/12/21 21:54:27;;;;;;;250.83;117.47;;;;;;;-0.42;92.96;99859.98;4490237;78;21184;-86
2020/12/21 22:00:29;;;;;;;273.23;132.23;;;;;;;-0.43;92.93;99861.61;4487867;78;21144;-85
2020/12/21 22:06:31;;;;;;;271.87;133.25;;;;;;;-0.46;93.02;99866.20;4487568;78;21145;-85
2020/12/21 22:12:35;;;;;;;265.85;130.97;;;;;;;-0.40;93.41;99847.05;4489749;78;21175;-85
2020/12/21 22:18:36;;;;;;;283.62;134.90;;;;;;;-0.31;93.20;99839.16;4488800;78;21196;-84
2020/12/21 22:24:38;;;;;;;266.80;126.97;;;;;;;-0.36;93.06;99826.56;4509596;77;21148;-85
2020/12/21 22:30:40;;;;;;;260.35;123.38;;;;;;;-0.41;93.07;99822.56;4481987;78;21137;-85
2020/12/21 22:36:41;;;;;;;281.57;126.70;;;;;;;-0.42;92.97;99813.44;4481874;78;21213;-85
2020/12/21 22:42:43;;;;;;;275.00;127.32;;;;;;;-0.48;92.48;99809.19;4484060;78;21468;-85
2020/12/21 22:48:44;;;;;;;277.00;128.32;;;;;;;-0.70;92.40;99796.75;4487166;78;21752;-85
2020/12/21 22:54:46;;;;;;;255.47;118.40;;;;;;;-0.72;92.85;99805.66;4483973;78;21137;-85
2020/12/21 23:00:47;;;;;;;269.07;122.93;;;;;;;-0.76;92.58;99795.19;4481156;78;21140;-85
2020/12/21 23:06:50;;;;;;;260.03;121.27;;;;;;;-0.91;92.42;99794.77;4489104;78;21219;-85
2020/12/21 23:12:53;;;;;;;259.70;121.37;;;;;;;-0.97;92.46;99794.55;4484429;78;21179;-85
2020/12/21 23:18:54;;;;;;;267.40;122.33;;;;;;;-1.17;91.90;99783.12;4485352;78;21137;-84
2020/12/21 23:24:56;;;;;;;261.20;117.93;;;;;;;-1.33;92.23;99767.66;4489933;78;21151;-84
2020/12/21 23:30:58;;;;;;;225.33;104.37;;;;;;;-1.46;92.10;99768.83;4486912;78;21558;-85
2020/12/21 23:37:00;;;;;;;233.37;111.97;;;;;;;-1.53;92.28;99775.84;4486730;77;21183;-85
2020/12/21 23:43:01;;;;;;;220.57;107.67;;;;;;;-1.62;92.45;99780.20;4485976;78;21685;-85
2020/12/21 23:49:04;;;;;;;233.33;109.90;;;;;;;-1.54;92.82;99764.85;4488252;78;21184;-85
2020/12/21 23:55:05;;;;;;;226.13;107.27;;;;;;;-1.59;92.09;99760.84;4489132;78;21164;-85
